Terminal Aerodrome Forecast
Issued by NWS

Home | Current Version | Previous Version | Text Only | Print | Product List | Glossary On
Versions: 1 2 3 4 5 6 7 8 9 10 11 12
000
FTUS45 KRIW 312323
TAFWRL
TAF
KWRL 312323Z 0100/0124 VRB06KT P6SM SKC
     FM012200 VRB15G28KT P6SM VCTS FEW090CB=

USA.gov is the U.S. government's official web portal to all federal, state and local government web resources and services.